sensor_id;sensor_type;location;lat;lon;timestamp;P1;durP1;ratioP1;P2;durP2;ratioP2
54193;SDS011;40102;50.906;6.972;2023-08-06T00:00:01;4.07;;;1.95;;
54193;SDS011;40102;50.906;6.972;2023-08-06T00:02:28;3.95;;;1.98;;
54193;SDS011;40102;50.906;6.972;2023-08-06T00:04:53;3.35;;;2.08;;
54193;SDS011;40102;50.906;6.972;2023-08-06T00:07:18;8.25;;;2.33;;
54193;SDS011;40102;50.906;6.972;2023-08-06T00:09:44;3.55;;;2.20;;
54193;SDS011;40102;50.906;6.972;2023-08-06T00:12:10;3.50;;;2.08;;
54193;SDS011;40102;50.906;6.972;2023-08-06T00:14:35;4.57;;;1.63;;
54193;SDS011;40102;50.906;6.972;2023-08-06T00:17:00;2.65;;;1.90;;
54193;SDS011;40102;50.906;6.972;2023-08-06T00:19:26;3.05;;;2.17;;
54193;SDS011;40102;50.906;6.972;2023-08-06T00:21:51;4.60;;;2.10;;
54193;SDS011;40102;50.906;6.972;2023-08-06T00:24:16;1.95;;;1.73;;
54193;SDS011;40102;50.906;6.972;2023-08-06T00:26:42;3.90;;;2.17;;
54193;SDS011;40102;50.906;6.972;2023-08-06T00:29:07;2.85;;;2.10;;
54193;SDS011;40102;50.906;6.972;2023-08-06T00:31:33;2.50;;;2.08;;
54193;SDS011;40102;50.906;6.972;2023-08-06T00:33:58;3.88;;;2.10;;
54193;SDS011;40102;50.906;6.972;2023-08-06T00:36:24;7.00;;;2.42;;
54193;SDS011;40102;50.906;6.972;2023-08-06T00:38:50;3.75;;;2.60;;
54193;SDS011;40102;50.906;6.972;2023-08-06T00:41:15;4.95;;;2.47;;
54193;SDS011;40102;50.906;6.972;2023-08-06T00:43:40;4.03;;;2.40;;
54193;SDS011;40102;50.906;6.972;2023-08-06T00:46:06;5.50;;;2.40;;
54193;SDS011;40102;50.906;6.972;2023-08-06T00:48:31;3.90;;;2.47;;
54193;SDS011;40102;50.906;6.972;2023-08-06T00:50:57;4.38;;;2.40;;
54193;SDS011;40102;50.906;6.972;2023-08-06T00:53:23;6.53;;;2.42;;
54193;SDS011;40102;50.906;6.972;2023-08-06T00:55:48;6.53;;;2.80;;
54193;SDS011;40102;50.906;6.972;2023-08-06T00:58:15;3.92;;;2.40;;
54193;SDS011;40102;50.906;6.972;2023-08-06T01:00:41;5.03;;;2.47;;
54193;SDS011;40102;50.906;6.972;2023-08-06T01:03:07;4.65;;;2.60;;
54193;SDS011;40102;50.906;6.972;2023-08-06T01:05:32;4.95;;;2.38;;
54193;SDS011;40102;50.906;6.972;2023-08-06T01:13:31;4.72;;;2.63;;
54193;SDS011;40102;50.906;6.972;2023-08-06T01:16:03;3.05;;;2.53;;
54193;SDS011;40102;50.906;6.972;2023-08-06T01:18:30;6.25;;;2.70;;
54193;SDS011;40102;50.906;6.972;2023-08-06T01:20:56;4.18;;;2.50;;
54193;SDS011;40102;50.906;6.972;2023-08-06T01:23:21;4.78;;;2.40;;
54193;SDS011;40102;50.906;6.972;2023-08-06T01:28:54;3.38;;;2.50;;
54193;SDS011;40102;50.906;6.972;2023-08-06T01:31:26;4.40;;;2.38;;
54193;SDS011;40102;50.906;6.972;2023-08-06T01:33:56;3.13;;;2.10;;
54193;SDS011;40102;50.906;6.972;2023-08-06T01:36:23;4.85;;;2.17;;
54193;SDS011;40102;50.906;6.972;2023-08-06T01:38:51;3.60;;;2.35;;
54193;SDS011;40102;50.906;6.972;2023-08-06T01:41:17;4.07;;;2.55;;
54193;SDS011;40102;50.906;6.972;2023-08-06T01:43:42;4.55;;;2.47;;
54193;SDS011;40102;50.906;6.972;2023-08-06T01:46:07;4.55;;;2.50;;
54193;SDS011;40102;50.906;6.972;2023-08-06T01:48:33;5.30;;;2.55;;
54193;SDS011;40102;50.906;6.972;2023-08-06T01:50:58;3.38;;;2.50;;
54193;SDS011;40102;50.906;6.972;2023-08-06T01:53:23;5.03;;;3.40;;
54193;SDS011;40102;50.906;6.972;2023-08-06T01:55:49;6.00;;;2.60;;
54193;SDS011;40102;50.906;6.972;2023-08-06T01:58:14;3.72;;;2.30;;
54193;SDS011;40102;50.906;6.972;2023-08-06T02:00:40;3.15;;;2.13;;
54193;SDS011;40102;50.906;6.972;2023-08-06T02:03:05;3.88;;;2.33;;
54193;SDS011;40102;50.906;6.972;2023-08-06T02:05:31;6.22;;;2.38;;
54193;SDS011;40102;50.906;6.972;2023-08-06T02:07:56;6.20;;;2.42;;
54193;SDS011;40102;50.906;6.972;2023-08-06T02:10:22;3.35;;;2.22;;
54193;SDS011;40102;50.906;6.972;2023-08-06T02:12:47;3.55;;;2.33;;
54193;SDS011;40102;50.906;6.972;2023-08-06T02:15:12;4.78;;;2.28;;
54193;SDS011;40102;50.906;6.972;2023-08-06T02:17:38;3.72;;;2.30;;
54193;SDS011;40102;50.906;6.972;2023-08-06T02:20:03;7.43;;;2.28;;
54193;SDS011;40102;50.906;6.972;2023-08-06T02:22:29;4.82;;;3.20;;
54193;SDS011;40102;50.906;6.972;2023-08-06T02:24:55;10.18;;;3.00;;
54193;SDS011;40102;50.906;6.972;2023-08-06T02:27:20;4.25;;;2.53;;
54193;SDS011;40102;50.906;6.972;2023-08-06T02:33:07;3.88;;;2.05;;
54193;SDS011;40102;50.906;6.972;2023-08-06T02:35:33;4.47;;;2.30;;
54193;SDS011;40102;50.906;6.972;2023-08-06T02:37:58;3.85;;;2.33;;
54193;SDS011;40102;50.906;6.972;2023-08-06T02:40:23;3.33;;;2.13;;
54193;SDS011;40102;50.906;6.972;2023-08-06T02:42:49;3.70;;;2.45;;
54193;SDS011;40102;50.906;6.972;2023-08-06T02:45:14;3.22;;;2.30;;
54193;SDS011;40102;50.906;6.972;2023-08-06T02:47:39;7.30;;;2.38;;
54193;SDS011;40102;50.906;6.972;2023-08-06T02:50:05;4.25;;;2.15;;
54193;SDS011;40102;50.906;6.972;2023-08-06T02:52:31;4.60;;;2.17;;
54193;SDS011;40102;50.906;6.972;2023-08-06T02:54:56;5.43;;;2.50;;
54193;SDS011;40102;50.906;6.972;2023-08-06T02:57:24;4.13;;;2.03;;
54193;SDS011;40102;50.906;6.972;2023-08-06T02:59:50;4.63;;;2.30;;
54193;SDS011;40102;50.906;6.972;2023-08-06T03:02:15;3.55;;;2.28;;
54193;SDS011;40102;50.906;6.972;2023-08-06T03:04:40;8.45;;;2.40;;
54193;SDS011;40102;50.906;6.972;2023-08-06T03:07:06;4.25;;;2.20;;
54193;SDS011;40102;50.906;6.972;2023-08-06T03:09:31;5.78;;;2.25;;
54193;SDS011;40102;50.906;6.972;2023-08-06T03:11:56;3.92;;;2.53;;
54193;SDS011;40102;50.906;6.972;2023-08-06T03:14:22;4.90;;;2.20;;
54193;SDS011;40102;50.906;6.972;2023-08-06T03:16:47;3.53;;;1.95;;
54193;SDS011;40102;50.906;6.972;2023-08-06T03:19:12;3.67;;;2.20;;
54193;SDS011;40102;50.906;6.972;2023-08-06T03:21:38;4.00;;;2.05;;
54193;SDS011;40102;50.906;6.972;2023-08-06T03:24:03;3.05;;;2.00;;
54193;SDS011;40102;50.906;6.972;2023-08-06T03:26:29;5.68;;;2.10;;
54193;SDS011;40102;50.906;6.972;2023-08-06T03:28:54;4.97;;;2.03;;
54193;SDS011;40102;50.906;6.972;2023-08-06T03:31:19;5.63;;;2.17;;
54193;SDS011;40102;50.906;6.972;2023-08-06T03:33:45;3.50;;;2.20;;
54193;SDS011;40102;50.906;6.972;2023-08-06T03:36:10;6.13;;;2.33;;
54193;SDS011;40102;50.906;6.972;2023-08-06T03:38:36;7.60;;;2.63;;
54193;SDS011;40102;50.906;6.972;2023-08-06T03:41:01;3.38;;;2.50;;
54193;SDS011;40102;50.906;6.972;2023-08-06T03:43:26;4.38;;;2.60;;
54193;SDS011;40102;50.906;6.972;2023-08-06T03:45:52;5.03;;;2.63;;
54193;SDS011;40102;50.906;6.972;2023-08-06T03:48:17;3.95;;;2.67;;
54193;SDS011;40102;50.906;6.972;2023-08-06T03:50:42;4.10;;;2.50;;
54193;SDS011;40102;50.906;6.972;2023-08-06T03:53:08;3.03;;;2.30;;
54193;SDS011;40102;50.906;6.972;2023-08-06T03:55:33;5.88;;;2.80;;
54193;SDS011;40102;50.906;6.972;2023-08-06T03:57:59;4.70;;;2.30;;
54193;SDS011;40102;50.906;6.972;2023-08-06T04:00:24;6.57;;;2.33;;
54193;SDS011;40102;50.906;6.972;2023-08-06T04:02:49;4.10;;;2.13;;
54193;SDS011;40102;50.906;6.972;2023-08-06T04:05:15;2.90;;;2.25;;
54193;SDS011;40102;50.906;6.972;2023-08-06T04:07:41;3.15;;;2.20;;
54193;SDS011;40102;50.906;6.972;2023-08-06T04:10:06;3.08;;;2.00;;
54193;SDS011;40102;50.906;6.972;2023-08-06T04:12:31;3.40;;;2.20;;
54193;SDS011;40102;50.906;6.972;2023-08-06T04:15:01;4.05;;;1.80;;
54193;SDS011;40102;50.906;6.972;2023-08-06T04:17:27;5.53;;;1.80;;
54193;SDS011;40102;50.906;6.972;2023-08-06T04:19:53;2.75;;;1.90;;
54193;SDS011;40102;50.906;6.972;2023-08-06T04:22:20;3.25;;;1.90;;
54193;SDS011;40102;50.906;6.972;2023-08-06T04:24:46;3.38;;;2.10;;
54193;SDS011;40102;50.906;6.972;2023-08-06T04:27:13;3.15;;;1.80;;
54193;SDS011;40102;50.906;6.972;2023-08-06T04:29:39;3.00;;;1.70;;
54193;SDS011;40102;50.906;6.972;2023-08-06T04:32:05;4.10;;;1.92;;
54193;SDS011;40102;50.906;6.972;2023-08-06T04:34:32;2.78;;;1.60;;
54193;SDS011;40102;50.906;6.972;2023-08-06T04:36:58;2.80;;;1.63;;
54193;SDS011;40102;50.906;6.972;2023-08-06T04:39:24;4.50;;;1.88;;
54193;SDS011;40102;50.906;6.972;2023-08-06T04:41:50;2.60;;;1.90;;
54193;SDS011;40102;50.906;6.972;2023-08-06T04:44:15;4.35;;;2.00;;
54193;SDS011;40102;50.906;6.972;2023-08-06T04:46:41;4.70;;;1.98;;
54193;SDS011;40102;50.906;6.972;2023-08-06T04:49:06;4.72;;;1.83;;
54193;SDS011;40102;50.906;6.972;2023-08-06T04:51:31;3.20;;;2.13;;
54193;SDS011;40102;50.906;6.972;2023-08-06T04:53:57;3.25;;;2.17;;
54193;SDS011;40102;50.906;6.972;2023-08-06T04:56:22;9.02;;;2.13;;
54193;SDS011;40102;50.906;6.972;2023-08-06T04:58:48;3.00;;;2.20;;
54193;SDS011;40102;50.906;6.972;2023-08-06T05:01:14;2.95;;;2.03;;
54193;SDS011;40102;50.906;6.972;2023-08-06T05:03:39;3.53;;;1.98;;
54193;SDS011;40102;50.906;6.972;2023-08-06T05:06:04;4.50;;;2.00;;
54193;SDS011;40102;50.906;6.972;2023-08-06T05:08:30;3.95;;;2.10;;
54193;SDS011;40102;50.906;6.972;2023-08-06T05:10:55;6.07;;;2.33;;
54193;SDS011;40102;50.906;6.972;2023-08-06T05:13:20;7.25;;;2.28;;
54193;SDS011;40102;50.906;6.972;2023-08-06T05:15:46;5.50;;;2.08;;
54193;SDS011;40102;50.906;6.972;2023-08-06T05:18:11;3.97;;;2.00;;
54193;SDS011;40102;50.906;6.972;2023-08-06T05:20:38;3.30;;;2.45;;
54193;SDS011;40102;50.906;6.972;2023-08-06T05:23:04;3.80;;;2.30;;
54193;SDS011;40102;50.906;6.972;2023-08-06T05:25:30;4.07;;;2.10;;
54193;SDS011;40102;50.906;6.972;2023-08-06T05:27:55;4.55;;;2.08;;
54193;SDS011;40102;50.906;6.972;2023-08-06T05:30:21;5.20;;;2.28;;
54193;SDS011;40102;50.906;6.972;2023-08-06T05:32:46;4.47;;;2.10;;
54193;SDS011;40102;50.906;6.972;2023-08-06T05:35:11;6.32;;;2.83;;
54193;SDS011;40102;50.906;6.972;2023-08-06T05:37:38;5.28;;;2.10;;
54193;SDS011;40102;50.906;6.972;2023-08-06T05:40:03;3.80;;;2.10;;
54193;SDS011;40102;50.906;6.972;2023-08-06T05:42:29;5.80;;;2.08;;
54193;SDS011;40102;50.906;6.972;2023-08-06T05:44:55;3.40;;;2.47;;
54193;SDS011;40102;50.906;6.972;2023-08-06T05:47:21;3.20;;;1.92;;
54193;SDS011;40102;50.906;6.972;2023-08-06T05:49:46;3.90;;;2.20;;
54193;SDS011;40102;50.906;6.972;2023-08-06T05:52:12;4.60;;;2.55;;
54193;SDS011;40102;50.906;6.972;2023-08-06T05:54:37;2.95;;;2.10;;
54193;SDS011;40102;50.906;6.972;2023-08-06T05:57:02;5.88;;;2.20;;
54193;SDS011;40102;50.906;6.972;2023-08-06T05:59:28;4.20;;;2.50;;
54193;SDS011;40102;50.906;6.972;2023-08-06T06:01:53;2.70;;;1.98;;
54193;SDS011;40102;50.906;6.972;2023-08-06T06:04:19;5.28;;;2.60;;
54193;SDS011;40102;50.906;6.972;2023-08-06T06:06:44;5.60;;;2.13;;
54193;SDS011;40102;50.906;6.972;2023-08-06T06:09:10;3.42;;;2.20;;
54193;SDS011;40102;50.906;6.972;2023-08-06T06:11:35;3.13;;;1.85;;
54193;SDS011;40102;50.906;6.972;2023-08-06T06:14:00;4.15;;;2.17;;
54193;SDS011;40102;50.906;6.972;2023-08-06T06:16:26;5.00;;;2.00;;
54193;SDS011;40102;50.906;6.972;2023-08-06T06:18:51;3.65;;;2.15;;
54193;SDS011;40102;50.906;6.972;2023-08-06T06:21:17;4.68;;;1.90;;
54193;SDS011;40102;50.906;6.972;2023-08-06T06:23:42;1.65;;;1.23;;
54193;SDS011;40102;50.906;6.972;2023-08-06T06:26:07;1.35;;;1.20;;
54193;SDS011;40102;50.906;6.972;2023-08-06T06:28:33;1.60;;;1.20;;
54193;SDS011;40102;50.906;6.972;2023-08-06T06:31:01;2.15;;;1.38;;
54193;SDS011;40102;50.906;6.972;2023-08-06T06:33:27;2.42;;;1.10;;
54193;SDS011;40102;50.906;6.972;2023-08-06T06:35:52;1.50;;;1.00;;
54193;SDS011;40102;50.906;6.972;2023-08-06T06:38:18;1.63;;;0.90;;
54193;SDS011;40102;50.906;6.972;2023-08-06T06:40:43;0.95;;;0.85;;
54193;SDS011;40102;50.906;6.972;2023-08-06T06:43:09;1.15;;;0.90;;
54193;SDS011;40102;50.906;6.972;2023-08-06T06:45:34;1.23;;;0.90;;
54193;SDS011;40102;50.906;6.972;2023-08-06T06:47:59;1.30;;;0.73;;
54193;SDS011;40102;50.906;6.972;2023-08-06T06:50:25;0.90;;;0.75;;
54193;SDS011;40102;50.906;6.972;2023-08-06T06:52:51;0.65;;;0.52;;
54193;SDS011;40102;50.906;6.972;2023-08-06T06:55:16;1.02;;;0.90;;
54193;SDS011;40102;50.906;6.972;2023-08-06T06:57:42;0.60;;;0.60;;
54193;SDS011;40102;50.906;6.972;2023-08-06T07:00:07;0.90;;;0.70;;
54193;SDS011;40102;50.906;6.972;2023-08-06T07:02:33;0.68;;;0.60;;
54193;SDS011;40102;50.906;6.972;2023-08-06T07:04:58;0.80;;;0.57;;
54193;SDS011;40102;50.906;6.972;2023-08-06T07:07:24;1.27;;;0.77;;
54193;SDS011;40102;50.906;6.972;2023-08-06T07:09:49;1.13;;;0.70;;
54193;SDS011;40102;50.906;6.972;2023-08-06T07:12:14;0.98;;;0.65;;
54193;SDS011;40102;50.906;6.972;2023-08-06T07:14:40;1.35;;;0.70;;
54193;SDS011;40102;50.906;6.972;2023-08-06T07:17:05;1.23;;;0.90;;
54193;SDS011;40102;50.906;6.972;2023-08-06T07:19:30;1.42;;;1.00;;
54193;SDS011;40102;50.906;6.972;2023-08-06T07:21:56;1.98;;;0.77;;
54193;SDS011;40102;50.906;6.972;2023-08-06T07:24:21;0.90;;;0.70;;
54193;SDS011;40102;50.906;6.972;2023-08-06T07:26:47;1.10;;;0.60;;
54193;SDS011;40102;50.906;6.972;2023-08-06T07:29:12;1.27;;;0.73;;
54193;SDS011;40102;50.906;6.972;2023-08-06T07:31:37;1.05;;;0.77;;
54193;SDS011;40102;50.906;6.972;2023-08-06T07:34:06;0.98;;;0.68;;
54193;SDS011;40102;50.906;6.972;2023-08-06T07:36:31;1.40;;;0.85;;
54193;SDS011;40102;50.906;6.972;2023-08-06T07:38:57;0.80;;;0.80;;
54193;SDS011;40102;50.906;6.972;2023-08-06T07:41:22;1.08;;;0.80;;
54193;SDS011;40102;50.906;6.972;2023-08-06T07:43:48;3.50;;;1.10;;
54193;SDS011;40102;50.906;6.972;2023-08-06T07:46:14;1.67;;;1.00;;
54193;SDS011;40102;50.906;6.972;2023-08-06T07:48:40;1.35;;;0.80;;
54193;SDS011;40102;50.906;6.972;2023-08-06T07:51:05;1.90;;;1.00;;
54193;SDS011;40102;50.906;6.972;2023-08-06T07:53:31;1.55;;;1.10;;
54193;SDS011;40102;50.906;6.972;2023-08-06T07:55:56;1.90;;;1.00;;
54193;SDS011;40102;50.906;6.972;2023-08-06T07:58:22;1.63;;;1.00;;
54193;SDS011;40102;50.906;6.972;2023-08-06T08:00:49;1.00;;;0.80;;
54193;SDS011;40102;50.906;6.972;2023-08-06T08:03:14;1.10;;;0.90;;
54193;SDS011;40102;50.906;6.972;2023-08-06T08:05:41;2.38;;;1.05;;
54193;SDS011;40102;50.906;6.972;2023-08-06T08:08:07;1.08;;;0.82;;
54193;SDS011;40102;50.906;6.972;2023-08-06T08:10:33;1.35;;;0.68;;
54193;SDS011;40102;50.906;6.972;2023-08-06T08:13:00;1.17;;;0.85;;
54193;SDS011;40102;50.906;6.972;2023-08-06T08:15:27;2.92;;;1.10;;
54193;SDS011;40102;50.906;6.972;2023-08-06T08:17:53;2.30;;;0.90;;
54193;SDS011;40102;50.906;6.972;2023-08-06T08:20:19;1.05;;;0.80;;
54193;SDS011;40102;50.906;6.972;2023-08-06T08:22:46;0.77;;;0.77;;
54193;SDS011;40102;50.906;6.972;2023-08-06T08:25:12;0.63;;;0.63;;
54193;SDS011;40102;50.906;6.972;2023-08-06T08:27:37;1.77;;;1.00;;
54193;SDS011;40102;50.906;6.972;2023-08-06T08:30:03;0.98;;;0.70;;
54193;SDS011;40102;50.906;6.972;2023-08-06T08:32:28;1.40;;;0.75;;
54193;SDS011;40102;50.906;6.972;2023-08-06T08:34:53;0.82;;;0.80;;
54193;SDS011;40102;50.906;6.972;2023-08-06T08:37:19;0.90;;;0.80;;
54193;SDS011;40102;50.906;6.972;2023-08-06T08:39:44;0.98;;;0.80;;
54193;SDS011;40102;50.906;6.972;2023-08-06T08:42:10;3.08;;;0.98;;
54193;SDS011;40102;50.906;6.972;2023-08-06T08:44:36;1.10;;;0.90;;
54193;SDS011;40102;50.906;6.972;2023-08-06T08:47:05;1.20;;;0.90;;
54193;SDS011;40102;50.906;6.972;2023-08-06T08:49:35;1.40;;;0.85;;
54193;SDS011;40102;50.906;6.972;2023-08-06T08:52:02;1.25;;;0.80;;
54193;SDS011;40102;50.906;6.972;2023-08-06T08:54:31;0.80;;;0.70;;
54193;SDS011;40102;50.906;6.972;2023-08-06T08:56:57;1.98;;;0.70;;
54193;SDS011;40102;50.906;6.972;2023-08-06T08:59:22;0.95;;;0.85;;
54193;SDS011;40102;50.906;6.972;2023-08-06T09:01:48;0.80;;;0.80;;
54193;SDS011;40102;50.906;6.972;2023-08-06T09:04:16;1.20;;;0.90;;
54193;SDS011;40102;50.906;6.972;2023-08-06T09:06:42;2.80;;;1.00;;
54193;SDS011;40102;50.906;6.972;2023-08-06T09:09:12;1.08;;;0.98;;
54193;SDS011;40102;50.906;6.972;2023-08-06T09:11:43;1.52;;;1.10;;
54193;SDS011;40102;50.906;6.972;2023-08-06T09:14:09;1.48;;;0.98;;
54193;SDS011;40102;50.906;6.972;2023-08-06T09:16:36;1.48;;;0.93;;
54193;SDS011;40102;50.906;6.972;2023-08-06T09:19:11;1.30;;;1.00;;
54193;SDS011;40102;50.906;6.972;2023-08-06T09:21:41;2.97;;;1.30;;
54193;SDS011;40102;50.906;6.972;2023-08-06T09:24:11;0.75;;;0.70;;
54193;SDS011;40102;50.906;6.972;2023-08-06T09:26:37;1.08;;;0.75;;
54193;SDS011;40102;50.906;6.972;2023-08-06T09:29:07;1.02;;;0.88;;
54193;SDS011;40102;50.906;6.972;2023-08-06T09:31:40;0.70;;;0.70;;
54193;SDS011;40102;50.906;6.972;2023-08-06T09:34:16;1.35;;;0.90;;
54193;SDS011;40102;50.906;6.972;2023-08-06T09:36:46;0.60;;;0.57;;
54193;SDS011;40102;50.906;6.972;2023-08-06T09:39:15;1.17;;;1.00;;
54193;SDS011;40102;50.906;6.972;2023-08-06T09:41:41;1.00;;;0.90;;
54193;SDS011;40102;50.906;6.972;2023-08-06T09:44:17;1.25;;;1.15;;
54193;SDS011;40102;50.906;6.972;2023-08-06T09:46:50;1.42;;;1.20;;
54193;SDS011;40102;50.906;6.972;2023-08-06T09:49:59;1.48;;;1.38;;
54193;SDS011;40102;50.906;6.972;2023-08-06T09:52:13;1.70;;;1.60;;
54193;SDS011;40102;50.906;6.972;2023-08-06T09:57:08;1.80;;;1.63;;
54193;SDS011;40102;50.906;6.972;2023-08-06T09:59:34;2.10;;;1.58;;
54193;SDS011;40102;50.906;6.972;2023-08-06T10:02:02;2.10;;;1.70;;
54193;SDS011;40102;50.906;6.972;2023-08-06T10:04:31;2.58;;;2.15;;
54193;SDS011;40102;50.906;6.972;2023-08-06T10:06:57;5.03;;;2.10;;
54193;SDS011;40102;50.906;6.972;2023-08-06T10:09:24;2.25;;;2.00;;
54193;SDS011;40102;50.906;6.972;2023-08-06T10:11:50;1.70;;;1.60;;
54193;SDS011;40102;50.906;6.972;2023-08-06T10:14:33;1.40;;;1.30;;
54193;SDS011;40102;50.906;6.972;2023-08-06T10:17:02;1.35;;;0.82;;
54193;SDS011;40102;50.906;6.972;2023-08-06T10:19:29;0.50;;;0.50;;
54193;SDS011;40102;50.906;6.972;2023-08-06T10:30:19;0.30;;;0.30;;
54193;SDS011;40102;50.906;6.972;2023-08-06T10:32:58;0.57;;;0.40;;
54193;SDS011;40102;50.906;6.972;2023-08-06T10:35:28;0.82;;;0.43;;
54193;SDS011;40102;50.906;6.972;2023-08-06T10:38:00;1.75;;;0.50;;
54193;SDS011;40102;50.906;6.972;2023-08-06T10:40:32;0.47;;;0.47;;
54193;SDS011;40102;50.906;6.972;2023-08-06T10:42:58;1.67;;;0.73;;
54193;SDS011;40102;50.906;6.972;2023-08-06T10:45:25;0.90;;;0.60;;
54193;SDS011;40102;50.906;6.972;2023-08-06T10:47:53;1.15;;;0.73;;
54193;SDS011;40102;50.906;6.972;2023-08-06T10:50:21;0.90;;;0.70;;
54193;SDS011;40102;50.906;6.972;2023-08-06T10:52:47;1.05;;;0.88;;
54193;SDS011;40102;50.906;6.972;2023-08-06T10:55:13;1.38;;;0.88;;
54193;SDS011;40102;50.906;6.972;2023-08-06T10:57:39;1.65;;;0.90;;
54193;SDS011;40102;50.906;6.972;2023-08-06T11:00:05;1.27;;;0.82;;
54193;SDS011;40102;50.906;6.972;2023-08-06T11:02:33;1.30;;;0.90;;
54193;SDS011;40102;50.906;6.972;2023-08-06T11:05:04;2.13;;;0.77;;
54193;SDS011;40102;50.906;6.972;2023-08-06T11:07:33;1.70;;;0.88;;
54193;SDS011;40102;50.906;6.972;2023-08-06T11:10:06;1.67;;;0.85;;
54193;SDS011;40102;50.906;6.972;2023-08-06T11:12:33;2.63;;;1.00;;
54193;SDS011;40102;50.906;6.972;2023-08-06T11:14:59;1.90;;;1.00;;
54193;SDS011;40102;50.906;6.972;2023-08-06T11:17:25;1.50;;;1.13;;
54193;SDS011;40102;50.906;6.972;2023-08-06T11:19:52;1.70;;;1.10;;
54193;SDS011;40102;50.906;6.972;2023-08-06T11:22:18;2.25;;;1.00;;
54193;SDS011;40102;50.906;6.972;2023-08-06T11:24:44;2.15;;;1.00;;
54193;SDS011;40102;50.906;6.972;2023-08-06T11:27:15;1.52;;;0.80;;
54193;SDS011;40102;50.906;6.972;2023-08-06T11:29:42;11.90;;;1.10;;
54193;SDS011;40102;50.906;6.972;2023-08-06T11:32:08;2.50;;;1.20;;
54193;SDS011;40102;50.906;6.972;2023-08-06T11:34:35;1.77;;;0.98;;
54193;SDS011;40102;50.906;6.972;2023-08-06T11:37:02;2.38;;;1.23;;
54193;SDS011;40102;50.906;6.972;2023-08-06T11:39:31;1.70;;;0.70;;
54193;SDS011;40102;50.906;6.972;2023-08-06T11:42:00;2.67;;;0.80;;
54193;SDS011;40102;50.906;6.972;2023-08-06T11:44:29;2.33;;;1.00;;
54193;SDS011;40102;50.906;6.972;2023-08-06T11:46:56;3.85;;;1.30;;
54193;SDS011;40102;50.906;6.972;2023-08-06T11:49:37;2.42;;;0.88;;
54193;SDS011;40102;50.906;6.972;2023-08-06T11:54:44;0.98;;;0.77;;
54193;SDS011;40102;50.906;6.972;2023-08-06T11:59:50;1.85;;;0.60;;
54193;SDS011;40102;50.906;6.972;2023-08-06T12:02:15;2.03;;;0.95;;
54193;SDS011;40102;50.906;6.972;2023-08-06T12:07:29;3.22;;;0.80;;
54193;SDS011;40102;50.906;6.972;2023-08-06T12:09:56;1.20;;;0.50;;
54193;SDS011;40102;50.906;6.972;2023-08-06T12:12:23;2.67;;;0.70;;
54193;SDS011;40102;50.906;6.972;2023-08-06T12:14:49;2.17;;;0.63;;
54193;SDS011;40102;50.906;6.972;2023-08-06T12:17:14;2.22;;;0.80;;
54193;SDS011;40102;50.906;6.972;2023-08-06T12:19:40;0.98;;;0.68;;
54193;SDS011;40102;50.906;6.972;2023-08-06T12:22:05;1.30;;;0.68;;
54193;SDS011;40102;50.906;6.972;2023-08-06T12:24:31;1.88;;;0.70;;
54193;SDS011;40102;50.906;6.972;2023-08-06T12:26:57;1.88;;;1.10;;
54193;SDS011;40102;50.906;6.972;2023-08-06T12:29:23;2.95;;;0.85;;
54193;SDS011;40102;50.906;6.972;2023-08-06T12:31:50;1.67;;;0.93;;
54193;SDS011;40102;50.906;6.972;2023-08-06T12:34:15;1.88;;;0.70;;
54193;SDS011;40102;50.906;6.972;2023-08-06T12:36:40;1.88;;;0.63;;
54193;SDS011;40102;50.906;6.972;2023-08-06T12:39:06;1.73;;;0.85;;
54193;SDS011;40102;50.906;6.972;2023-08-06T12:41:31;1.85;;;0.93;;
54193;SDS011;40102;50.906;6.972;2023-08-06T12:43:57;1.95;;;0.90;;
54193;SDS011;40102;50.906;6.972;2023-08-06T12:46:22;2.90;;;0.80;;
54193;SDS011;40102;50.906;6.972;2023-08-06T12:48:47;3.22;;;0.80;;
54193;SDS011;40102;50.906;6.972;2023-08-06T12:51:13;3.65;;;1.13;;
54193;SDS011;40102;50.906;6.972;2023-08-06T12:53:39;2.65;;;0.95;;
54193;SDS011;40102;50.906;6.972;2023-08-06T12:56:04;3.25;;;0.82;;
54193;SDS011;40102;50.906;6.972;2023-08-06T12:58:30;2.55;;;0.90;;
54193;SDS011;40102;50.906;6.972;2023-08-06T13:00:56;3.17;;;1.00;;
54193;SDS011;40102;50.906;6.972;2023-08-06T13:03:24;3.65;;;0.90;;
54193;SDS011;40102;50.906;6.972;2023-08-06T13:05:50;3.53;;;0.95;;
54193;SDS011;40102;50.906;6.972;2023-08-06T13:08:18;1.90;;;0.80;;
54193;SDS011;40102;50.906;6.972;2023-08-06T13:10:43;2.25;;;0.82;;
54193;SDS011;40102;50.906;6.972;2023-08-06T13:13:09;4.03;;;1.30;;
54193;SDS011;40102;50.906;6.972;2023-08-06T13:15:35;2.72;;;0.93;;
54193;SDS011;40102;50.906;6.972;2023-08-06T13:18:01;1.83;;;0.80;;
54193;SDS011;40102;50.906;6.972;2023-08-06T13:20:26;3.22;;;1.00;;
54193;SDS011;40102;50.906;6.972;2023-08-06T13:22:52;1.70;;;0.90;;
54193;SDS011;40102;50.906;6.972;2023-08-06T13:25:18;1.65;;;1.00;;
54193;SDS011;40102;50.906;6.972;2023-08-06T13:27:44;3.53;;;1.10;;
54193;SDS011;40102;50.906;6.972;2023-08-06T13:30:10;4.20;;;1.20;;
54193;SDS011;40102;50.906;6.972;2023-08-06T13:32:36;2.65;;;1.42;;
54193;SDS011;40102;50.906;6.972;2023-08-06T13:35:04;3.42;;;1.05;;
54193;SDS011;40102;50.906;6.972;2023-08-06T13:37:30;2.38;;;1.20;;
54193;SDS011;40102;50.906;6.972;2023-08-06T13:39:58;4.55;;;1.40;;
54193;SDS011;40102;50.906;6.972;2023-08-06T13:42:24;4.57;;;1.30;;
54193;SDS011;40102;50.906;6.972;2023-08-06T13:44:49;2.65;;;1.40;;
54193;SDS011;40102;50.906;6.972;2023-08-06T13:47:17;2.22;;;1.52;;
54193;SDS011;40102;50.906;6.972;2023-08-06T13:49:43;2.50;;;1.42;;
54193;SDS011;40102;50.906;6.972;2023-08-06T13:52:08;3.10;;;1.35;;
54193;SDS011;40102;50.906;6.972;2023-08-06T13:54:34;2.58;;;1.30;;
54193;SDS011;40102;50.906;6.972;2023-08-06T13:56:59;3.03;;;1.33;;
54193;SDS011;40102;50.906;6.972;2023-08-06T13:59:25;2.65;;;1.20;;
54193;SDS011;40102;50.906;6.972;2023-08-06T14:01:50;1.67;;;1.05;;
54193;SDS011;40102;50.906;6.972;2023-08-06T14:04:15;2.65;;;1.30;;
54193;SDS011;40102;50.906;6.972;2023-08-06T14:06:41;1.73;;;1.08;;
54193;SDS011;40102;50.906;6.972;2023-08-06T14:09:06;5.10;;;1.67;;
54193;SDS011;40102;50.906;6.972;2023-08-06T14:11:33;2.75;;;1.50;;
54193;SDS011;40102;50.906;6.972;2023-08-06T14:13:58;1.88;;;1.30;;
54193;SDS011;40102;50.906;6.972;2023-08-06T14:16:25;3.00;;;1.30;;
54193;SDS011;40102;50.906;6.972;2023-08-06T14:18:53;4.30;;;1.33;;
54193;SDS011;40102;50.906;6.972;2023-08-06T14:21:19;6.15;;;1.35;;
54193;SDS011;40102;50.906;6.972;2023-08-06T14:23:44;3.40;;;0.90;;
54193;SDS011;40102;50.906;6.972;2023-08-06T14:26:10;3.97;;;0.90;;
54193;SDS011;40102;50.906;6.972;2023-08-06T14:28:36;1.58;;;0.60;;
54193;SDS011;40102;50.906;6.972;2023-08-06T14:31:01;2.75;;;0.80;;
54193;SDS011;40102;50.906;6.972;2023-08-06T14:33:26;2.28;;;0.70;;
54193;SDS011;40102;50.906;6.972;2023-08-06T14:35:52;4.45;;;0.70;;
54193;SDS011;40102;50.906;6.972;2023-08-06T14:38:17;1.70;;;0.57;;
54193;SDS011;40102;50.906;6.972;2023-08-06T14:40:43;2.95;;;0.63;;
54193;SDS011;40102;50.906;6.972;2023-08-06T14:43:09;1.60;;;0.60;;
54193;SDS011;40102;50.906;6.972;2023-08-06T14:45:37;3.70;;;0.73;;
54193;SDS011;40102;50.906;6.972;2023-08-06T14:48:04;1.43;;;0.67;;
54193;SDS011;40102;50.906;6.972;2023-08-06T14:50:29;3.53;;;0.70;;
54193;SDS011;40102;50.906;6.972;2023-08-06T14:52:54;1.48;;;0.60;;
54193;SDS011;40102;50.906;6.972;2023-08-06T14:55:26;2.72;;;0.80;;
54193;SDS011;40102;50.906;6.972;2023-08-06T14:57:52;2.72;;;0.80;;
54193;SDS011;40102;50.906;6.972;2023-08-06T15:00:18;3.03;;;1.25;;
54193;SDS011;40102;50.906;6.972;2023-08-06T15:02:44;2.38;;;0.60;;
54193;SDS011;40102;50.906;6.972;2023-08-06T15:05:10;2.08;;;0.57;;
54193;SDS011;40102;50.906;6.972;2023-08-06T15:07:35;1.83;;;0.60;;
54193;SDS011;40102;50.906;6.972;2023-08-06T15:10:02;0.77;;;0.57;;
54193;SDS011;40102;50.906;6.972;2023-08-06T15:12:29;2.90;;;0.68;;